sensor_id;sensor_type;location;lat;lon;timestamp;temperature;humidity
78516;SHT31;67815;51.990;5.688;2023-05-07T00:02:11;17.9;71.6
78516;SHT31;67815;51.990;5.688;2023-05-07T00:04:42;17.9;71.7
78516;SHT31;67815;51.990;5.688;2023-05-07T00:07:12;17.9;71.7
78516;SHT31;67815;51.990;5.688;2023-05-07T00:09:42;17.9;71.8
78516;SHT31;67815;51.990;5.688;2023-05-07T00:12:11;17.9;71.8
78516;SHT31;67815;51.990;5.688;2023-05-07T00:14:41;17.9;71.8
78516;SHT31;67815;51.990;5.688;2023-05-07T00:17:11;17.9;71.6
78516;SHT31;67815;51.990;5.688;2023-05-07T00:19:41;17.9;71.6
78516;SHT31;67815;51.990;5.688;2023-05-07T00:22:10;17.9;71.6
78516;SHT31;67815;51.990;5.688;2023-05-07T00:24:40;17.9;71.5
78516;SHT31;67815;51.990;5.688;2023-05-07T00:27:10;17.9;71.5
78516;SHT31;67815;51.990;5.688;2023-05-07T00:29:39;17.8;71.4
78516;SHT31;67815;51.990;5.688;2023-05-07T00:32:09;17.8;71.2
78516;SHT31;67815;51.990;5.688;2023-05-07T00:34:40;17.8;71.2
78516;SHT31;67815;51.990;5.688;2023-05-07T00:37:10;17.8;71.1
78516;SHT31;67815;51.990;5.688;2023-05-07T00:39:39;17.8;70.9
78516;SHT31;67815;51.990;5.688;2023-05-07T00:42:09;17.8;70.8
78516;SHT31;67815;51.990;5.688;2023-05-07T00:44:38;17.8;70.8
78516;SHT31;67815;51.990;5.688;2023-05-07T00:47:08;17.7;70.9
78516;SHT31;67815;51.990;5.688;2023-05-07T00:49:42;17.7;70.9
78516;SHT31;67815;51.990;5.688;2023-05-07T00:52:15;17.7;70.8
78516;SHT31;67815;51.990;5.688;2023-05-07T00:54:46;17.7;70.8
78516;SHT31;67815;51.990;5.688;2023-05-07T00:57:16;17.6;70.9
78516;SHT31;67815;51.990;5.688;2023-05-07T00:59:45;17.6;71.1
78516;SHT31;67815;51.990;5.688;2023-05-07T01:02:15;17.6;71.2
78516;SHT31;67815;51.990;5.688;2023-05-07T01:04:45;17.6;71.3
78516;SHT31;67815;51.990;5.688;2023-05-07T01:07:15;17.5;71.4
78516;SHT31;67815;51.990;5.688;2023-05-07T01:09:45;17.5;71.3
78516;SHT31;67815;51.990;5.688;2023-05-07T01:12:15;17.5;71.4
78516;SHT31;67815;51.990;5.688;2023-05-07T01:14:48;17.5;71.4
78516;SHT31;67815;51.990;5.688;2023-05-07T01:17:18;17.5;71.4
78516;SHT31;67815;51.990;5.688;2023-05-07T01:19:47;17.5;71.5
78516;SHT31;67815;51.990;5.688;2023-05-07T01:22:30;17.5;71.7
78516;SHT31;67815;51.990;5.688;2023-05-07T01:25:01;17.4;71.8
78516;SHT31;67815;51.990;5.688;2023-05-07T01:27:31;17.4;71.9
78516;SHT31;67815;51.990;5.688;2023-05-07T01:30:01;17.4;72.0
78516;SHT31;67815;51.990;5.688;2023-05-07T01:32:36;17.4;72.1
78516;SHT31;67815;51.990;5.688;2023-05-07T01:35:13;17.4;72.1
78516;SHT31;67815;51.990;5.688;2023-05-07T01:37:46;17.4;72.1
78516;SHT31;67815;51.990;5.688;2023-05-07T01:40:17;17.4;72.1
78516;SHT31;67815;51.990;5.688;2023-05-07T01:42:48;17.4;72.1
78516;SHT31;67815;51.990;5.688;2023-05-07T01:45:18;17.4;72.2
78516;SHT31;67815;51.990;5.688;2023-05-07T01:47:49;17.4;72.2
78516;SHT31;67815;51.990;5.688;2023-05-07T01:50:19;17.4;72.3
78516;SHT31;67815;51.990;5.688;2023-05-07T01:52:50;17.4;72.3
78516;SHT31;67815;51.990;5.688;2023-05-07T01:55:20;17.4;72.2
78516;SHT31;67815;51.990;5.688;2023-05-07T01:57:51;17.4;72.2
78516;SHT31;67815;51.990;5.688;2023-05-07T02:00:22;17.4;72.1
78516;SHT31;67815;51.990;5.688;2023-05-07T02:02:52;17.4;72.1
78516;SHT31;67815;51.990;5.688;2023-05-07T02:05:21;17.4;72.2
78516;SHT31;67815;51.990;5.688;2023-05-07T02:07:51;17.4;72.1
78516;SHT31;67815;51.990;5.688;2023-05-07T02:10:21;17.4;72.2
78516;SHT31;67815;51.990;5.688;2023-05-07T02:12:52;17.4;72.1
78516;SHT31;67815;51.990;5.688;2023-05-07T02:15:24;17.4;72.1
78516;SHT31;67815;51.990;5.688;2023-05-07T02:18:03;17.4;72.2
78516;SHT31;67815;51.990;5.688;2023-05-07T02:20:33;17.4;72.1
78516;SHT31;67815;51.990;5.688;2023-05-07T02:23:03;17.4;72.1
78516;SHT31;67815;51.990;5.688;2023-05-07T02:25:32;17.4;72.2
78516;SHT31;67815;51.990;5.688;2023-05-07T02:28:02;17.4;72.2
78516;SHT31;67815;51.990;5.688;2023-05-07T02:30:32;17.4;72.1
78516;SHT31;67815;51.990;5.688;2023-05-07T02:33:04;17.4;72.2
78516;SHT31;67815;51.990;5.688;2023-05-07T02:35:35;17.4;72.2
78516;SHT31;67815;51.990;5.688;2023-05-07T02:38:05;17.3;72.2
78516;SHT31;67815;51.990;5.688;2023-05-07T02:40:34;17.3;72.1
78516;SHT31;67815;51.990;5.688;2023-05-07T02:43:06;17.3;72.1
78516;SHT31;67815;51.990;5.688;2023-05-07T02:45:37;17.3;72.0
78516;SHT31;67815;51.990;5.688;2023-05-07T02:48:07;17.4;72.0
78516;SHT31;67815;51.990;5.688;2023-05-07T02:50:37;17.4;72.0
78516;SHT31;67815;51.990;5.688;2023-05-07T02:53:06;17.4;72.0
78516;SHT31;67815;51.990;5.688;2023-05-07T02:55:36;17.4;71.9
78516;SHT31;67815;51.990;5.688;2023-05-07T02:58:06;17.4;71.9
78516;SHT31;67815;51.990;5.688;2023-05-07T03:00:36;17.4;71.9
78516;SHT31;67815;51.990;5.688;2023-05-07T03:03:08;17.4;71.8
78516;SHT31;67815;51.990;5.688;2023-05-07T03:05:38;17.4;71.8
78516;SHT31;67815;51.990;5.688;2023-05-07T03:08:08;17.4;71.8
78516;SHT31;67815;51.990;5.688;2023-05-07T03:10:39;17.4;71.8
78516;SHT31;67815;51.990;5.688;2023-05-07T03:13:08;17.3;72.0
78516;SHT31;67815;51.990;5.688;2023-05-07T03:15:38;17.3;72.0
78516;SHT31;67815;51.990;5.688;2023-05-07T03:18:08;17.3;72.2
78516;SHT31;67815;51.990;5.688;2023-05-07T03:20:38;17.3;72.2
78516;SHT31;67815;51.990;5.688;2023-05-07T03:23:08;17.3;72.3
78516;SHT31;67815;51.990;5.688;2023-05-07T03:25:37;17.2;72.3
78516;SHT31;67815;51.990;5.688;2023-05-07T03:28:07;17.2;72.5
78516;SHT31;67815;51.990;5.688;2023-05-07T03:30:36;17.2;72.5
78516;SHT31;67815;51.990;5.688;2023-05-07T03:33:06;17.2;72.7
78516;SHT31;67815;51.990;5.688;2023-05-07T03:35:36;17.2;72.7
78516;SHT31;67815;51.990;5.688;2023-05-07T03:38:06;17.1;72.8
78516;SHT31;67815;51.990;5.688;2023-05-07T03:40:37;17.1;72.8
78516;SHT31;67815;51.990;5.688;2023-05-07T03:43:07;17.1;72.8
78516;SHT31;67815;51.990;5.688;2023-05-07T03:45:36;17.1;72.9
78516;SHT31;67815;51.990;5.688;2023-05-07T03:48:06;17.1;73.0
78516;SHT31;67815;51.990;5.688;2023-05-07T03:50:36;17.1;73.0
78516;SHT31;67815;51.990;5.688;2023-05-07T03:53:05;17.1;73.1
78516;SHT31;67815;51.990;5.688;2023-05-07T03:55:35;17.0;73.0
78516;SHT31;67815;51.990;5.688;2023-05-07T03:58:04;17.0;73.1
78516;SHT31;67815;51.990;5.688;2023-05-07T04:00:34;17.0;73.2
78516;SHT31;67815;51.990;5.688;2023-05-07T04:03:08;17.0;73.2
78516;SHT31;67815;51.990;5.688;2023-05-07T04:05:37;17.0;73.2
78516;SHT31;67815;51.990;5.688;2023-05-07T04:08:07;17.0;73.3
78516;SHT31;67815;51.990;5.688;2023-05-07T04:10:37;17.0;73.3
78516;SHT31;67815;51.990;5.688;2023-05-07T04:13:06;17.0;73.4
78516;SHT31;67815;51.990;5.688;2023-05-07T04:15:37;17.0;73.4
78516;SHT31;67815;51.990;5.688;2023-05-07T04:18:08;17.0;73.4
78516;SHT31;67815;51.990;5.688;2023-05-07T04:20:38;17.0;73.6
78516;SHT31;67815;51.990;5.688;2023-05-07T04:23:08;17.0;73.6
78516;SHT31;67815;51.990;5.688;2023-05-07T04:25:39;17.0;73.6
78516;SHT31;67815;51.990;5.688;2023-05-07T04:28:08;17.0;73.6
78516;SHT31;67815;51.990;5.688;2023-05-07T04:30:39;17.0;73.6
78516;SHT31;67815;51.990;5.688;2023-05-07T04:33:08;17.0;73.7
78516;SHT31;67815;51.990;5.688;2023-05-07T04:35:39;17.0;73.7
78516;SHT31;67815;51.990;5.688;2023-05-07T04:38:08;17.0;73.8
78516;SHT31;67815;51.990;5.688;2023-05-07T04:40:40;17.0;73.8
78516;SHT31;67815;51.990;5.688;2023-05-07T04:43:12;17.0;73.5
78516;SHT31;67815;51.990;5.688;2023-05-07T04:45:41;17.0;73.7
78516;SHT31;67815;51.990;5.688;2023-05-07T04:48:11;17.0;73.9
78516;SHT31;67815;51.990;5.688;2023-05-07T04:50:42;17.0;73.8
78516;SHT31;67815;51.990;5.688;2023-05-07T04:53:11;17.0;73.9
78516;SHT31;67815;51.990;5.688;2023-05-07T04:55:41;17.0;73.8
78516;SHT31;67815;51.990;5.688;2023-05-07T04:58:11;17.0;73.9
78516;SHT31;67815;51.990;5.688;2023-05-07T05:00:41;17.0;74.0
78516;SHT31;67815;51.990;5.688;2023-05-07T05:03:13;17.0;74.1
78516;SHT31;67815;51.990;5.688;2023-05-07T05:05:43;17.0;74.0
78516;SHT31;67815;51.990;5.688;2023-05-07T05:08:13;17.0;74.1
78516;SHT31;67815;51.990;5.688;2023-05-07T05:10:43;16.9;74.3
78516;SHT31;67815;51.990;5.688;2023-05-07T05:13:13;16.9;74.2
78516;SHT31;67815;51.990;5.688;2023-05-07T05:15:43;16.9;74.3
78516;SHT31;67815;51.990;5.688;2023-05-07T05:18:13;16.9;74.5
78516;SHT31;67815;51.990;5.688;2023-05-07T05:20:42;16.9;74.3
78516;SHT31;67815;51.990;5.688;2023-05-07T05:23:12;16.9;74.5
78516;SHT31;67815;51.990;5.688;2023-05-07T05:25:42;16.9;74.6
78516;SHT31;67815;51.990;5.688;2023-05-07T05:28:11;16.9;74.9
78516;SHT31;67815;51.990;5.688;2023-05-07T05:30:43;16.9;75.1
78516;SHT31;67815;51.990;5.688;2023-05-07T05:33:12;16.9;74.9
78516;SHT31;67815;51.990;5.688;2023-05-07T05:35:42;16.9;74.9
78516;SHT31;67815;51.990;5.688;2023-05-07T05:38:13;16.9;75.0
78516;SHT31;67815;51.990;5.688;2023-05-07T05:40:43;16.9;75.2
78516;SHT31;67815;51.990;5.688;2023-05-07T05:43:13;16.9;75.1
78516;SHT31;67815;51.990;5.688;2023-05-07T05:45:43;16.9;75.0
78516;SHT31;67815;51.990;5.688;2023-05-07T05:48:15;16.9;75.3
78516;SHT31;67815;51.990;5.688;2023-05-07T05:50:44;16.9;75.6
78516;SHT31;67815;51.990;5.688;2023-05-07T05:53:14;16.9;75.7
78516;SHT31;67815;51.990;5.688;2023-05-07T05:55:46;16.9;75.4
78516;SHT31;67815;51.990;5.688;2023-05-07T05:58:16;17.0;75.7
78516;SHT31;67815;51.990;5.688;2023-05-07T06:00:46;17.0;75.7
78516;SHT31;67815;51.990;5.688;2023-05-07T06:03:19;17.0;75.5
78516;SHT31;67815;51.990;5.688;2023-05-07T06:05:48;17.0;75.6
78516;SHT31;67815;51.990;5.688;2023-05-07T06:08:18;17.0;75.7
78516;SHT31;67815;51.990;5.688;2023-05-07T06:10:48;17.0;75.6
78516;SHT31;67815;51.990;5.688;2023-05-07T06:13:18;17.0;75.5
78516;SHT31;67815;51.990;5.688;2023-05-07T06:15:48;17.0;75.7
78516;SHT31;67815;51.990;5.688;2023-05-07T06:18:20;17.0;75.6
78516;SHT31;67815;51.990;5.688;2023-05-07T06:20:49;17.0;75.9
78516;SHT31;67815;51.990;5.688;2023-05-07T06:23:19;17.0;76.0
78516;SHT31;67815;51.990;5.688;2023-05-07T06:25:51;17.0;76.0
78516;SHT31;67815;51.990;5.688;2023-05-07T06:28:20;17.0;76.0
78516;SHT31;67815;51.990;5.688;2023-05-07T06:30:50;17.1;76.1
78516;SHT31;67815;51.990;5.688;2023-05-07T06:33:20;17.1;76.0
78516;SHT31;67815;51.990;5.688;2023-05-07T06:35:49;17.1;76.2
78516;SHT31;67815;51.990;5.688;2023-05-07T06:38:19;17.1;76.2
78516;SHT31;67815;51.990;5.688;2023-05-07T06:40:50;17.1;76.2
78516;SHT31;67815;51.990;5.688;2023-05-07T06:43:22;17.1;75.5
78516;SHT31;67815;51.990;5.688;2023-05-07T06:45:52;17.2;75.4
78516;SHT31;67815;51.990;5.688;2023-05-07T06:48:22;17.2;76.1
78516;SHT31;67815;51.990;5.688;2023-05-07T06:50:51;17.2;75.9
78516;SHT31;67815;51.990;5.688;2023-05-07T06:53:23;17.2;76.0
78516;SHT31;67815;51.990;5.688;2023-05-07T06:55:54;17.2;75.9
78516;SHT31;67815;51.990;5.688;2023-05-07T06:58:23;17.2;76.4
78516;SHT31;67815;51.990;5.688;2023-05-07T07:00:53;17.3;76.2
78516;SHT31;67815;51.990;5.688;2023-05-07T07:03:22;17.3;76.2
78516;SHT31;67815;51.990;5.688;2023-05-07T07:05:54;17.3;76.4
78516;SHT31;67815;51.990;5.688;2023-05-07T07:08:25;17.4;75.8
78516;SHT31;67815;51.990;5.688;2023-05-07T07:10:54;17.4;75.8
78516;SHT31;67815;51.990;5.688;2023-05-07T07:13:24;17.5;75.7
78516;SHT31;67815;51.990;5.688;2023-05-07T07:15:55;17.5;74.9
78516;SHT31;67815;51.990;5.688;2023-05-07T07:18:25;17.5;75.3
78516;SHT31;67815;51.990;5.688;2023-05-07T07:20:55;17.6;74.7
78516;SHT31;67815;51.990;5.688;2023-05-07T07:23:25;17.6;75.0
78516;SHT31;67815;51.990;5.688;2023-05-07T07:25:54;17.6;74.8
78516;SHT31;67815;51.990;5.688;2023-05-07T07:28:24;17.7;74.8
78516;SHT31;67815;51.990;5.688;2023-05-07T07:30:54;17.7;74.5
78516;SHT31;67815;51.990;5.688;2023-05-07T07:33:23;17.7;74.3
78516;SHT31;67815;51.990;5.688;2023-05-07T07:35:55;17.7;75.1
78516;SHT31;67815;51.990;5.688;2023-05-07T07:38:25;17.7;75.3
78516;SHT31;67815;51.990;5.688;2023-05-07T07:40:55;17.8;75.2
78516;SHT31;67815;51.990;5.688;2023-05-07T07:43:25;17.8;75.1
78516;SHT31;67815;51.990;5.688;2023-05-07T07:45:55;17.8;75.2
78516;SHT31;67815;51.990;5.688;2023-05-07T07:48:24;17.8;75.8
78516;SHT31;67815;51.990;5.688;2023-05-07T07:50:55;17.8;76.0
78516;SHT31;67815;51.990;5.688;2023-05-07T07:53:27;17.8;75.7
78516;SHT31;67815;51.990;5.688;2023-05-07T07:55:56;17.8;75.8
78516;SHT31;67815;51.990;5.688;2023-05-07T07:58:26;17.8;76.4
78516;SHT31;67815;51.990;5.688;2023-05-07T08:00:56;17.9;76.4
78516;SHT31;67815;51.990;5.688;2023-05-07T08:03:26;17.9;77.4
78516;SHT31;67815;51.990;5.688;2023-05-07T08:05:55;17.9;76.7
78516;SHT31;67815;51.990;5.688;2023-05-07T08:08:25;17.9;77.4
78516;SHT31;67815;51.990;5.688;2023-05-07T08:10:54;18.0;77.1
78516;SHT31;67815;51.990;5.688;2023-05-07T08:13:24;18.0;76.4
78516;SHT31;67815;51.990;5.688;2023-05-07T08:15:54;18.0;76.1
78516;SHT31;67815;51.990;5.688;2023-05-07T08:18:24;18.1;76.1
78516;SHT31;67815;51.990;5.688;2023-05-07T08:20:56;18.1;76.1
78516;SHT31;67815;51.990;5.688;2023-05-07T08:23:25;18.1;76.0
78516;SHT31;67815;51.990;5.688;2023-05-07T08:25:55;18.1;75.9
78516;SHT31;67815;51.990;5.688;2023-05-07T08:28:25;18.2;76.2
78516;SHT31;67815;51.990;5.688;2023-05-07T08:30:54;18.2;75.0
78516;SHT31;67815;51.990;5.688;2023-05-07T08:33:27;18.2;75.1
78516;SHT31;67815;51.990;5.688;2023-05-07T08:35:57;18.2;74.3
78516;SHT31;67815;51.990;5.688;2023-05-07T08:38:27;18.2;75.4
78516;SHT31;67815;51.990;5.688;2023-05-07T08:40:57;18.2;75.6
78516;SHT31;67815;51.990;5.688;2023-05-07T08:43:28;18.3;75.2
78516;SHT31;67815;51.990;5.688;2023-05-07T08:46:01;18.3;76.3
78516;SHT31;67815;51.990;5.688;2023-05-07T08:48:32;18.3;75.6
78516;SHT31;67815;51.990;5.688;2023-05-07T08:51:05;18.4;74.9
78516;SHT31;67815;51.990;5.688;2023-05-07T08:53:38;18.4;73.9
78516;SHT31;67815;51.990;5.688;2023-05-07T08:56:10;18.4;75.2
78516;SHT31;67815;51.990;5.688;2023-05-07T08:58:40;18.5;75.4
78516;SHT31;67815;51.990;5.688;2023-05-07T09:01:15;18.5;74.0
78516;SHT31;67815;51.990;5.688;2023-05-07T09:03:47;18.5;73.3
78516;SHT31;67815;51.990;5.688;2023-05-07T09:06:17;18.6;73.4
78516;SHT31;67815;51.990;5.688;2023-05-07T09:08:51;18.6;73.7
78516;SHT31;67815;51.990;5.688;2023-05-07T09:11:23;18.6;72.0
78516;SHT31;67815;51.990;5.688;2023-05-07T09:13:56;18.6;71.8
78516;SHT31;67815;51.990;5.688;2023-05-07T09:16:30;18.7;72.5
78516;SHT31;67815;51.990;5.688;2023-05-07T09:19:00;18.7;72.8
78516;SHT31;67815;51.990;5.688;2023-05-07T09:21:32;18.7;71.9
78516;SHT31;67815;51.990;5.688;2023-05-07T09:24:02;18.8;71.7
78516;SHT31;67815;51.990;5.688;2023-05-07T09:26:32;18.8;73.8
78516;SHT31;67815;51.990;5.688;2023-05-07T09:29:04;18.8;73.2
78516;SHT31;67815;51.990;5.688;2023-05-07T09:31:36;18.9;72.9
78516;SHT31;67815;51.990;5.688;2023-05-07T09:34:06;18.9;73.9
78516;SHT31;67815;51.990;5.688;2023-05-07T09:36:36;19.0;70.3
78516;SHT31;67815;51.990;5.688;2023-05-07T09:39:06;19.0;69.9
78516;SHT31;67815;51.990;5.688;2023-05-07T09:41:45;19.1;70.0
78516;SHT31;67815;51.990;5.688;2023-05-07T09:44:19;19.1;68.7
78516;SHT31;67815;51.990;5.688;2023-05-07T09:46:54;19.1;68.7
78516;SHT31;67815;51.990;5.688;2023-05-07T09:49:29;19.1;69.3
78516;SHT31;67815;51.990;5.688;2023-05-07T09:52:01;19.2;68.9
78516;SHT31;67815;51.990;5.688;2023-05-07T09:54:35;19.2;68.8
78516;SHT31;67815;51.990;5.688;2023-05-07T09:57:05;19.2;68.2
78516;SHT31;67815;51.990;5.688;2023-05-07T09:59:37;19.3;69.1
78516;SHT31;67815;51.990;5.688;2023-05-07T10:02:09;19.3;70.4
78516;SHT31;67815;51.990;5.688;2023-05-07T10:04:40;19.3;70.5
78516;SHT31;67815;51.990;5.688;2023-05-07T10:07:13;19.4;70.3
78516;SHT31;67815;51.990;5.688;2023-05-07T10:09:44;19.4;67.6
78516;SHT31;67815;51.990;5.688;2023-05-07T10:12:17;19.4;67.1
78516;SHT31;67815;51.990;5.688;2023-05-07T10:14:47;19.5;67.5
78516;SHT31;67815;51.990;5.688;2023-05-07T10:17:19;19.5;66.3
78516;SHT31;67815;51.990;5.688;2023-05-07T10:19:50;19.5;66.0
78516;SHT31;67815;51.990;5.688;2023-05-07T10:22:25;19.6;65.7
78516;SHT31;67815;51.990;5.688;2023-05-07T10:24:58;19.6;67.5
78516;SHT31;67815;51.990;5.688;2023-05-07T10:27:29;19.6;69.4
78516;SHT31;67815;51.990;5.688;2023-05-07T10:30:10;19.7;69.4
78516;SHT31;67815;51.990;5.688;2023-05-07T10:32:47;19.7;68.9
78516;SHT31;67815;51.990;5.688;2023-05-07T10:35:21;19.8;65.1
78516;SHT31;67815;51.990;5.688;2023-05-07T10:37:53;19.8;67.2
78516;SHT31;67815;51.990;5.688;2023-05-07T10:40:23;19.8;65.2
78516;SHT31;67815;51.990;5.688;2023-05-07T10:42:58;19.9;68.8
78516;SHT31;67815;51.990;5.688;2023-05-07T10:45:29;19.9;67.4
78516;SHT31;67815;51.990;5.688;2023-05-07T10:48:09;20.0;66.2
78516;SHT31;67815;51.990;5.688;2023-05-07T10:50:41;20.0;68.1
78516;SHT31;67815;51.990;5.688;2023-05-07T10:53:26;20.1;68.4
78516;SHT31;67815;51.990;5.688;2023-05-07T10:56:27;20.1;67.3
78516;SHT31;67815;51.990;5.688;2023-05-07T11:01:53;20.2;66.1
78516;SHT31;67815;51.990;5.688;2023-05-07T11:04:25;20.3;64.5
78516;SHT31;67815;51.990;5.688;2023-05-07T11:07:26;20.3;65.1
78516;SHT31;67815;51.990;5.688;2023-05-07T11:10:06;20.4;63.0
78516;SHT31;67815;51.990;5.688;2023-05-07T11:12:52;20.4;63.2
78516;SHT31;67815;51.990;5.688;2023-05-07T11:15:37;20.5;63.1
78516;SHT31;67815;51.990;5.688;2023-05-07T11:18:07;20.5;65.4
78516;SHT31;67815;51.990;5.688;2023-05-07T11:20:48;20.6;64.3
78516;SHT31;67815;51.990;5.688;2023-05-07T11:24:04;20.7;61.6
78516;SHT31;67815;51.990;5.688;2023-05-07T11:26:44;20.7;65.2
78516;SHT31;67815;51.990;5.688;2023-05-07T11:29:16;20.8;65.8
78516;SHT31;67815;51.990;5.688;2023-05-07T11:31:51;20.8;64.2
78516;SHT31;67815;51.990;5.688;2023-05-07T11:34:26;20.9;64.6
78516;SHT31;67815;51.990;5.688;2023-05-07T11:36:55;20.9;65.6
78516;SHT31;67815;51.990;5.688;2023-05-07T11:39:30;21.0;65.7
78516;SHT31;67815;51.990;5.688;2023-05-07T11:42:02;21.0;64.4
78516;SHT31;67815;51.990;5.688;2023-05-07T11:44:43;21.0;65.3
78516;SHT31;67815;51.990;5.688;2023-05-07T11:47:20;21.1;64.7
78516;SHT31;67815;51.990;5.688;2023-05-07T11:49:51;21.1;64.3
78516;SHT31;67815;51.990;5.688;2023-05-07T11:52:23;21.1;63.6
78516;SHT31;67815;51.990;5.688;2023-05-07T11:54:54;21.2;63.0
78516;SHT31;67815;51.990;5.688;2023-05-07T11:57:26;21.2;63.2
78516;SHT31;67815;51.990;5.688;2023-05-07T11:59:58;21.2;62.4
78516;SHT31;67815;51.990;5.688;2023-05-07T12:02:29;21.2;62.7
78516;SHT31;67815;51.990;5.688;2023-05-07T12:05:00;21.3;65.2
78516;SHT31;67815;51.990;5.688;2023-05-07T12:07:33;21.3;62.9
78516;SHT31;67815;51.990;5.688;2023-05-07T12:10:06;21.3;61.5
78516;SHT31;67815;51.990;5.688;2023-05-07T12:12:40;21.3;60.8
78516;SHT31;67815;51.990;5.688;2023-05-07T12:15:17;21.4;63.8
78516;SHT31;67815;51.990;5.688;2023-05-07T12:17:52;21.4;62.8
78516;SHT31;67815;51.990;5.688;2023-05-07T12:20:22;21.4;62.5
78516;SHT31;67815;51.990;5.688;2023-05-07T12:22:52;21.5;62.2
78516;SHT31;67815;51.990;5.688;2023-05-07T12:25:23;21.5;60.8
78516;SHT31;67815;51.990;5.688;2023-05-07T12:27:53;21.5;58.4
78516;SHT31;67815;51.990;5.688;2023-05-07T12:30:26;21.6;60.3
78516;SHT31;67815;51.990;5.688;2023-05-07T12:32:56;21.6;60.7
78516;SHT31;67815;51.990;5.688;2023-05-07T12:35:29;21.6;61.6
78516;SHT31;67815;51.990;5.688;2023-05-07T12:37:59;21.7;58.9
78516;SHT31;67815;51.990;5.688;2023-05-07T12:40:38;21.7;58.8
78516;SHT31;67815;51.990;5.688;2023-05-07T12:43:07;21.8;57.7
78516;SHT31;67815;51.990;5.688;2023-05-07T12:45:41;21.9;58.9
78516;SHT31;67815;51.990;5.688;2023-05-07T12:48:12;21.9;55.9
78516;SHT31;67815;51.990;5.688;2023-05-07T12:50:42;22.0;57.2
78516;SHT31;67815;51.990;5.688;2023-05-07T12:53:12;22.0;59.2
78516;SHT31;67815;51.990;5.688;2023-05-07T12:55:44;22.1;57.6
78516;SHT31;67815;51.990;5.688;2023-05-07T12:58:19;22.2;59.8
78516;SHT31;67815;51.990;5.688;2023-05-07T13:00:50;22.2;59.5
78516;SHT31;67815;51.990;5.688;2023-05-07T13:03:24;22.3;60.0
78516;SHT31;67815;51.990;5.688;2023-05-07T13:05:55;22.4;58.2
78516;SHT31;67815;51.990;5.688;2023-05-07T13:08:28;22.4;58.3
78516;SHT31;67815;51.990;5.688;2023-05-07T13:11:00;22.5;55.0
78516;SHT31;67815;51.990;5.688;2023-05-07T13:13:32;22.5;55.9
78516;SHT31;67815;51.990;5.688;2023-05-07T13:16:03;22.5;56.5
78516;SHT31;67815;51.990;5.688;2023-05-07T13:18:33;22.5;56.9
78516;SHT31;67815;51.990;5.688;2023-05-07T13:21:04;22.5;56.4
78516;SHT31;67815;51.990;5.688;2023-05-07T13:23:36;22.5;56.3
78516;SHT31;67815;51.990;5.688;2023-05-07T13:26:05;22.5;56.6
78516;SHT31;67815;51.990;5.688;2023-05-07T13:28:35;22.5;56.0
78516;SHT31;67815;51.990;5.688;2023-05-07T13:31:05;22.5;56.7
78516;SHT31;67815;51.990;5.688;2023-05-07T13:33:34;22.5;56.5
78516;SHT31;67815;51.990;5.688;2023-05-07T13:36:05;22.6;55.5
78516;SHT31;67815;51.990;5.688;2023-05-07T13:38:35;22.6;55.5
78516;SHT31;67815;51.990;5.688;2023-05-07T13:41:05;22.6;54.5
78516;SHT31;67815;51.990;5.688;2023-05-07T13:43:37;22.6;54.4
78516;SHT31;67815;51.990;5.688;2023-05-07T13:46:07;22.7;55.4
78516;SHT31;67815;51.990;5.688;2023-05-07T13:48:36;22.7;56.4
78516;SHT31;67815;51.990;5.688;2023-05-07T13:51:06;22.7;55.6
78516;SHT31;67815;51.990;5.688;2023-05-07T13:53:36;22.8;55.1
78516;SHT31;67815;51.990;5.688;2023-05-07T13:56:06;22.8;55.1
78516;SHT31;67815;51.990;5.688;2023-05-07T13:58:35;22.8;55.3
78516;SHT31;67815;51.990;5.688;2023-05-07T14:01:06;22.8;53.8
78516;SHT31;67815;51.990;5.688;2023-05-07T14:03:36;22.9;54.6
78516;SHT31;67815;51.990;5.688;2023-05-07T14:06:07;22.9;53.8
78516;SHT31;67815;51.990;5.688;2023-05-07T14:08:37;22.9;54.1
78516;SHT31;67815;51.990;5.688;2023-05-07T14:11:07;22.9;54.0
78516;SHT31;67815;51.990;5.688;2023-05-07T14:13:38;22.9;54.5
78516;SHT31;67815;51.990;5.688;2023-05-07T14:16:08;22.9;54.1
78516;SHT31;67815;51.990;5.688;2023-05-07T14:18:39;22.9;55.6
78516;SHT31;67815;51.990;5.688;2023-05-07T14:21:09;22.9;56.7
78516;SHT31;67815;51.990;5.688;2023-05-07T14:23:38;22.9;57.8
78516;SHT31;67815;51.990;5.688;2023-05-07T14:26:08;22.9;56.9
78516;SHT31;67815;51.990;5.688;2023-05-07T14:28:38;22.9;55.8
78516;SHT31;67815;51.990;5.688;2023-05-07T14:31:13;22.9;56.4
78516;SHT31;67815;51.990;5.688;2023-05-07T14:33:43;22.9;56.6
78516;SHT31;67815;51.990;5.688;2023-05-07T14:36:12;22.9;57.2
78516;SHT31;67815;51.990;5.688;2023-05-07T14:38:43;22.9;58.5
78516;SHT31;67815;51.990;5.688;2023-05-07T14:41:12;22.9;58.0
78516;SHT31;67815;51.990;5.688;2023-05-07T14:43:43;22.9;57.7
78516;SHT31;67815;51.990;5.688;2023-05-07T14:46:18;22.9;56.2
78516;SHT31;67815;51.990;5.688;2023-05-07T14:48:47;22.9;55.6
78516;SHT31;67815;51.990;5.688;2023-05-07T14:51:17;22.9;56.5
78516;SHT31;67815;51.990;5.688;2023-05-07T14:53:47;22.9;57.1
78516;SHT31;67815;51.990;5.688;2023-05-07T14:56:17;22.9;56.9
78516;SHT31;67815;51.990;5.688;2023-05-07T14:58:48;22.9;56.8
78516;SHT31;67815;51.990;5.688;2023-05-07T15:01:22;22.9;56.4
78516;SHT31;67815;51.990;5.688;2023-05-07T15:03:52;22.9;56.5
78516;SHT31;67815;51.990;5.688;2023-05-07T15:06:22;22.9;56.0
78516;SHT31;67815;51.990;5.688;2023-05-07T15:08:52;22.9;56.3
78516;SHT31;67815;51.990;5.688;2023-05-07T15:11:21;22.9;57.2
78516;SHT31;67815;51.990;5.688;2023-05-07T15:13:51;22.9;56.8
78516;SHT31;67815;51.990;5.688;2023-05-07T15:16:21;22.9;57.7
78516;SHT31;67815;51.990;5.688;2023-05-07T15:18:50;22.9;57.3
78516;SHT31;67815;51.990;5.688;2023-05-07T15:21:20;22.9;57.1
78516;SHT31;67815;51.990;5.688;2023-05-07T15:23:49;22.9;56.2
78516;SHT31;67815;51.990;5.688;2023-05-07T15:26:19;22.9;55.4
78516;SHT31;67815;51.990;5.688;2023-05-07T15:28:50;22.8;54.3
78516;SHT31;67815;51.990;5.688;2023-05-07T15:31:21;22.8;55.1
78516;SHT31;67815;51.990;5.688;2023-05-07T15:33:51;22.7;54.6
78516;SHT31;67815;51.990;5.688;2023-05-07T15:36:21;22.6;54.6
78516;SHT31;67815;51.990;5.688;2023-05-07T15:38:52;22.5;54.0
78516;SHT31;67815;51.990;5.688;2023-05-07T15:41:22;22.4;54.6
78516;SHT31;67815;51.990;5.688;2023-05-07T15:43:52;22.3;54.2
78516;SHT31;67815;51.990;5.688;2023-05-07T15:46:24;22.2;55.9
78516;SHT31;67815;51.990;5.688;2023-05-07T15:48:54;22.1;56.8
78516;SHT31;67815;51.990;5.688;2023-05-07T15:51:26;21.9;58.4
78516;SHT31;67815;51.990;5.688;2023-05-07T15:53:57;21.8;61.2
78516;SHT31;67815;51.990;5.688;2023-05-07T15:56:28;21.7;61.2
78516;SHT31;67815;51.990;5.688;2023-05-07T15:59:00;21.5;61.7
78516;SHT31;67815;51.990;5.688;2023-05-07T16:01:30;21.4;61.5
78516;SHT31;67815;51.990;5.688;2023-05-07T16:04:00;21.3;62.0
78516;SHT31;67815;51.990;5.688;2023-05-07T16:06:30;21.2;63.0
78516;SHT31;67815;51.990;5.688;2023-05-07T16:09:00;21.1;64.3
78516;SHT31;67815;51.990;5.688;2023-05-07T16:11:29;21.1;63.9
78516;SHT31;67815;51.990;5.688;2023-05-07T16:14:00;21.0;64.0
78516;SHT31;67815;51.990;5.688;2023-05-07T16:16:32;20.9;64.2
78516;SHT31;67815;51.990;5.688;2023-05-07T16:19:01;20.8;64.5
78516;SHT31;67815;51.990;5.688;2023-05-07T16:21:31;20.8;64.2
78516;SHT31;67815;51.990;5.688;2023-05-07T16:24:01;20.7;64.4
78516;SHT31;67815;51.990;5.688;2023-05-07T16:26:31;20.7;63.6
78516;SHT31;67815;51.990;5.688;2023-05-07T16:29:03;20.6;64.2
78516;SHT31;67815;51.990;5.688;2023-05-07T16:31:33;20.6;65.1